Flight Track Log - Related Links

Times and Time Zones

All times are in EDT time to prevent confusion due to time zone crossing. See the SWA417 flight status page for this flight to view local times or setup timezone preferences in your user account.

Time Position Orientation Groundspeed Altitude Reporting Facility
EDT Latitude Longitude Course Direction KTS MPH feet Rate Location/Type
Sun 05:27:58 PM 39.6167 -119.7333 21° North 253 291 9,100  Level Northern Cal TRACON
Sun 05:29:04 PM 39.6639 -119.6469 55° Northeast 289 333 11,700 2,484 Climbing Oakland Center
Sun 05:30:06 PM 39.7267 -119.5556 48° Northeast 324 373 14,400 2,634 Climbing Oakland Center
Sun 05:31:07 PM 39.7950 -119.4531 49° Northeast 361 415 17,100 2,732 Climbing Oakland Center
Sun 05:32:00 PM 39.5785 -118.8387 83° East  Level Estimated
Sun 05:32:09 PM 39.8544 -119.3342 57° Northeast 390 449 20,000  Level Oakland Center
Sun 05:33:10 PM 39.8961 -119.1961 68° East 406 467 22,400 2,195 Climbing Oakland Center
Sun 05:34:12 PM 39.9358 -119.0478 71° East 429 494 24,500 2,244 Climbing Oakland Center
Sun 05:35:13 PM 39.9681 -118.8572 77° East 446 513 27,000 2,098 Climbing Oakland Center
Sun 05:36:15 PM 39.9961 -118.6939 77° East 455 524 28,800 1,659 Climbing Oakland Center
Sun 05:37:16 PM 40.0242 -118.5247 78° East 470 541 30,400 1,756 Climbing Oakland Center
Sun 05:38:18 PM 40.0528 -118.3572 77° East 471 542 32,400 1,756 Climbing Oakland Center
Sun 05:39:19 PM 40.0800 -118.1917 78° East 466 536 34,000 1,512 Climbing Oakland Center
Sun 05:40:21 PM 40.1078 -118.0239 78° East 469 540 35,500 1,415 Climbing Oakland Center
Sun 05:41:22 PM 40.1350 -117.8564 78° East 470 541 36,900 1,279 Climbing Oakland Center
Sun 05:42:23 PM 40.1639 -117.6828 78° East 467 537 38,100 1,024 Climbing Salt Lake Center
Sun 05:43:25 PM 40.1883 -117.5244 79° East 465 535 39,000 390 Climbing Salt Lake Center
Sun 05:44:26 PM 40.2186 -117.3386 78° East 467 537 38,900 -49 Descending Salt Lake Center
Sun 05:45:28 PM 40.2436 -117.1806 78° East 467 537 38,900  Level Salt Lake Center
Sun 05:46:30 PM 40.2719 -116.9969 79° East 465 535 38,900  Level Salt Lake Center
Sun 05:47:32 PM 40.2953 -116.8392 79° East 471 542 38,900  Level Salt Lake Center
Sun 05:48:33 PM 40.3244 -116.6547 78° East 472 543 38,900  Level Salt Lake Center
Sun 05:49:35 PM 40.3481 -116.4950 79° East 470 541 38,900  Level Salt Lake Center
Sun 05:50:37 PM 40.3592 -116.3042 86° East 472 543 38,900  Level Salt Lake Center
Sun 05:51:38 PM 40.3675 -116.1397 86° East 472 543 38,900  Level Salt Lake Center
Sun 05:52:40 PM 40.3781 -115.9456 86° East 477 549 38,900  Level Salt Lake Center
Sun 05:53:41 PM 40.3875 -115.7806 86° East 475 547 38,900  Level Salt Lake Center
Sun 05:54:43 PM 40.3975 -115.6167 85° East 473 544 38,900  Level Salt Lake Center
Sun 05:55:45 PM 40.4069 -115.4247 86° East 472 543 38,900  Level Salt Lake Center
Sun 05:56:46 PM 40.4156 -115.2581 86° East 476 548 38,900  Level Salt Lake Center
Sun 05:57:48 PM 40.4239 -115.0642 87° East 478 550 38,900  Level Salt Lake Center
Sun 05:58:50 PM 40.4314 -114.9003 87° East 473 544 38,900 49 Level Salt Lake Center
Sun 05:59:51 PM 40.4389 -114.7161 87° East 475 547 39,000 49 Climbing Salt Lake Center
Sun 06:00:53 PM 40.4469 -114.5425 86° East 476 548 39,000  Level Salt Lake Center
Sun 06:01:54 PM 40.4536 -114.3681 87° East 479 551 39,000  Level Salt Lake Center
Sun 06:02:56 PM 40.4611 -114.1956 87° East 478 550 39,000 -49 Level Salt Lake Center
Sun 06:03:57 PM 40.4697 -114.0225 86° East 477 549 38,900 -49 Descending Salt Lake Center
Sun 06:04:59 PM 40.4772 -113.8144 87° East 478 550 38,900  Level Salt Lake Center
Sun 06:06:00 PM 40.4811 -113.6425 88° East 475 547 38,900  Level Salt Lake Center
Sun 06:07:02 PM 40.4878 -113.4708 87° East 473 544 38,900  Level Salt Lake Center
Sun 06:08:03 PM 40.4933 -113.2986 88° East 474 545 38,900 49 Level Salt Lake Center
Sun 06:09:04 PM 40.4997 -113.1256 87° East 475 547 39,000 49 Climbing Salt Lake Center
Sun 06:10:06 PM 40.5014 -112.9497 89° East 481 554 39,000  Level Salt Lake Center
Sun 06:11:07 PM 40.5061 -112.7750 88° East 481 554 39,000 -49 Level Salt Lake Center
Sun 06:12:09 PM 40.5106 -112.6006 88° East 480 552 38,900 -49 Descending Salt Lake Center
Sun 06:13:10 PM 40.5161 -112.3911 88° East 481 554 38,900  Level Salt Lake Center
Sun 06:14:12 PM 40.5203 -112.2172 88° East 480 552 38,900 49 Level Salt Lake Center
Sun 06:15:13 PM 40.5233 -112.0433 89° East 480 552 39,000  Climbing Salt Lake Center
Sun 06:16:15 PM 40.5264 -111.8700 89° East 480 552 38,900 -49 Descending Salt Lake Center
Sun 06:17:16 PM 40.5294 -111.6978 89° East 477 549 38,900 49 Level Salt Lake Center
Sun 06:18:18 PM 40.5331 -111.5261 88° East 475 547 39,000  Climbing Salt Lake Center
Sun 06:19:19 PM 40.5361 -111.3211 89° East 470 541 38,900  Descending Salt Lake Center
Sun 06:20:21 PM 40.5375 -111.1497 89° East 471 542 39,000 49 Climbing Salt Lake Center
Sun 06:21:22 PM 40.5403 -110.9775 89° East 474 545 39,000 -49 Level Salt Lake Center
Sun 06:22:23 PM 40.5419 -110.8058 89° East 472 543 38,900 -49 Descending Salt Lake Center
Sun 06:23:25 PM 40.5419 -110.6342 90° East 472 543 38,900  Level Salt Lake Center
Sun 06:24:26 PM 40.5431 -110.4381 90° East 476 548 38,900 49 Level Salt Lake Center
Sun 06:25:28 PM 40.5442 -110.2731 89° East 473 544 39,000 49 Climbing Salt Lake Center
Sun 06:26:29 PM 40.5444 -110.1069 90° East 476 548 39,000  Level Salt Lake Center
Sun 06:27:31 PM 40.5447 -109.9106 90° East 478 550 39,000 -49 Level Salt Lake Center
Sun 06:28:32 PM 40.5453 -109.7428 90° East 480 552 38,900 -49 Descending Salt Lake Center
Sun 06:29:33 PM 40.5444 -109.5481 90° East 478 550 38,900 49 Level Salt Lake Center
Sun 06:30:35 PM 40.5444 -109.3786 90° East 481 554 39,000 49 Climbing Salt Lake Center
Sun 06:31:36 PM 40.5436 -109.2081 90° East 484 557 39,000  Level Salt Lake Center
Sun 06:32:38 PM 40.5372 -109.0119 92° East 481 554 39,000  Level Salt Lake Center
Sun 06:33:39 PM 40.5306 -108.8439 93° East 481 554 39,000  Level Salt Lake Center
Sun 06:34:41 PM 40.5250 -108.6544 92° East 480 552 39,000 -49 Level Salt Lake Center
Sun 06:35:42 PM 40.5172 -108.4914 94° East 475 547 38,900 -49 Descending Salt Lake Center
Sun 06:36:44 PM 40.5097 -108.2989 93° East 474 545 38,900 49 Level Salt Lake Center
Sun 06:37:45 PM 40.5036 -108.1328 93° East 476 548 39,000 49 Climbing Salt Lake Center
Sun 06:38:46 PM 40.4961 -107.9683 93° East 475 547 39,000  Level Salt Lake Center
Sun 06:40:00 PM 40.4856 -107.7336 93° East 476 548 39,000 -44 Level Denver Center
Sun 06:41:02 PM 40.4781 -107.5664 93° East 478 550 38,900 -48 Descending Denver Center
Sun 06:42:04 PM 40.4681 -107.3703 94° East 481 554 38,900  Level Denver Center
Sun 06:43:05 PM 40.4592 -107.2047 94° East 476 548 38,900  Level Denver Center
Sun 06:44:07 PM 40.4514 -107.0394 93° East 475 547 38,900  Level Denver Center
Sun 06:45:09 PM 40.4414 -106.8542 94° East 476 548 38,900 -532 Level Denver Center
Sun 06:46:11 PM 40.4322 -106.6822 94° East 473 544 37,800 -1,902 Descending Denver Center
Sun 06:47:12 PM 40.4217 -106.4928 94° East 467 537 35,000 -2,683 Descending Denver Center
Sun 06:48:14 PM 40.4139 -106.3308 94° East 465 535 32,300 -2,565 Descending Denver Center
Sun 06:49:16 PM 40.4006 -106.1400 95° East 469 540 29,700 -2,244 Descending Denver Center
Sun 06:50:17 PM 40.3917 -105.9917 94° East 458 527 27,700 -2,000 Descending Denver Center
Sun 06:51:19 PM 40.3825 -105.8308 94° East 442 509 25,600 -2,032 Descending Denver Center
Sun 06:52:21 PM 40.3714 -105.6725 95° East 432 497 23,500 -1,984 Descending Denver Center
Sun 06:53:23 PM 40.3597 -105.4914 95° East 426 490 21,500 -1,463 Descending Denver Center
Sun 06:54:24 PM 40.3261 -105.3864 113° Southeast 393 452 20,500 -1,463 Descending Denver Center
Sun 06:55:26 PM 40.2447 -105.2611 130° Southeast 366 421 18,500 -1,694 Descending Denver Center
Sun 06:56:28 PM 40.1806 -105.1597 130° Southeast 361 415 17,000 -726 Descending Denver Center
Sun 06:57:30 PM 40.1189 -105.0644 130° Southeast 344 396 17,000 -780 Level Denver Center
Sun 06:58:31 PM 40.0536 -104.9628 130° Southeast 341 392 15,400 -1,512 Descending Denver Center
Sun 06:59:33 PM 39.9939 -104.8700 130° Southeast 336 387 13,900 -1,500 Descending Denver Center
Sun 07:00:35 PM 39.9236 -104.8053 145° Southeast 314 361 12,300 -1,268 Descending Denver Center
Sun 07:01:36 PM 39.8347 -104.8078 181° South 298 343 11,300 -634 Descending Denver Center
Sun 07:02:38 PM 39.7594 -104.8097 181° South 270 311 11,000 -488 Descending Denver Center
Sun 07:03:39 PM 39.6831 -104.8119 181° South 259 298 10,300 -585 Descending Denver Center
Sun 07:04:41 PM 39.6594 -104.7458 115° Southeast 250 288 9,800 -726 Descending Denver Center
Sun 07:05:43 PM 39.7078 -104.6900 42° Northeast 215 247 8,800 -1,210 Descending Denver Center
Sun 07:06:45 PM 39.7528 -104.6611 26° Northeast 185 213 7,300 -1,317 Descending Denver Center
Sun 07:07:46 PM 39.7956 -104.6614 360° North 156 180 6,100 -927 Descending Denver Center
Sun 07:08:48 PM 39.8389 -104.6608 North 152 175 5,400 -677 Descending Denver Center
Sun 07:10:00 PM 39.8500 -104.6667 North  Level FlightAware Approximate
Sun 07:17:00 PM 39.8617 -104.6732 North  Level Estimated
Sun 07:18:00 PM 39.8617 -104.6732 North  Level Estimated
Sun 07:19:00 PM 39.8617 -104.6732 North  Level Estimated

Login

Don't have an account? Register now (free) for customized features, flight alerts, and more!